Time;durP1;ratioP1;P1;durP2;ratioP2;P2;SDS_P1;SDS_P2;PMS_P1;PMS_P2;Temp;Humidity;BMP_temperature;BMP_pressure;BME280_temperature;BME280_humidity;BME280_pressure;Samples;Min_cycle;Max_cycle;Signal;HPM_P1;HPM_P2
2022/04/27 01:32:52;;;;;;;;;;;;;;;9.96;56.46;101611.53;4924070;29;970;-96
2022/04/27 01:39:23;;;;;;;;;;;;;;;9.95;56.51;101623.34;4923387;29;1943;-96
2022/04/27 02:17:04;;;;;;;;;;;;;;;9.79;56.26;101618.16;4885628;29;1940;-96
2022/04/27 02:48:10;;;;;;;;;;;;;;;9.69;55.89;101625.72;4941901;28;1016;-96
2022/04/27 03:19:37;;;;;;;;;;;;;;;9.58;55.89;101635.09;4941686;29;1883;-96
2022/04/27 03:38:15;;;;;;;;;;;;;;;9.50;55.95;101651.31;4942235;29;1949;-97
2022/04/27 04:15:37;;;;;;;;;;;;;;;9.36;55.87;101685.25;4941243;29;578;-96
2022/04/27 04:31:04;;;;;;;;;;;;;;;9.30;55.72;101686.81;4943715;29;580;-96
2022/04/27 04:40:16;;;;;;;;;;;;;;;9.27;55.51;101686.38;4942660;29;1321;-96
2022/04/27 04:52:45;;;;;;;;;;;;;;;9.22;55.61;101703.03;4922988;29;1416;-96
2022/04/27 05:02:29;;;;;;;;;;;;;;;9.19;55.53;101714.16;4923068;29;943;-96
2022/04/27 05:05:21;;;;;;;;;;;;;;;9.18;55.53;101715.19;4923216;29;712;-96
2022/04/27 05:11:27;;;;;;;;;;;;;;;9.16;55.44;101717.19;4921981;29;1132;-96
2022/04/27 05:14:24;;;;;;;;;;;;;;;9.15;55.50;101714.69;4922922;29;728;-96
2022/04/27 05:20:29;;;;;;;;;;;;;;;9.13;55.51;101714.88;4916252;29;1726;-96
2022/04/27 05:38:59;;;;;;;;;;;;;;;9.07;55.22;101740.63;4942509;29;1884;-96
2022/04/27 05:51:24;;;;;;;;;;;;;;;9.04;55.34;101734.78;4940858;29;1270;-96
2022/04/27 05:54:18;;;;;;;;;;;;;;;9.03;55.23;101733.94;4940775;29;1382;-96
2022/04/27 06:00:19;;;;;;;;;;;;;;;9.01;55.33;101741.34;4939322;29;1362;-96
2022/04/27 06:03:21;;;;;;;;;;;;;;;9.00;55.16;101741.50;4940079;29;923;-96
2022/04/27 06:06:13;;;;;;;;;;;;;;;8.99;55.37;101753.28;4939723;29;617;-96
2022/04/27 06:08:42;;;;;;;;;;;;;;;8.98;55.40;101749.78;4922493;29;1473;-96
2022/04/27 06:11:10;;;;;;;;;;;;;;;8.98;55.20;101755.16;4922385;29;1519;-96
2022/04/27 06:13:50;;;;;;;;;;;;;;;8.97;55.11;101769.59;4939275;29;924;-96
2022/04/27 06:16:29;;;;;;;;;;;;;;;8.97;55.11;101769.59;4939027;29;864;-96
2022/04/27 06:19:01;;;;;;;;;;;;;;;8.96;55.26;101773.28;4922460;29;1911;-96
2022/04/27 06:21:38;;;;;;;;;;;;;;;8.95;55.07;101768.94;4938036;29;1564;-96
2022/04/27 06:24:12;;;;;;;;;;;;;;;8.94;55.14;101775.34;4922406;29;909;-96
2022/04/27 08:33:27;;;;;;;;;;;;;;;8.73;54.82;101816.25;4948434;29;2956;-96
2022/04/27 08:38:39;;;;;;;;;;;;;;;8.71;54.77;101804.88;4940002;29;1907;-96
2022/04/27 08:41:20;;;;;;;;;;;;;;;8.72;54.73;101811.06;4959381;28;905;-96
2022/04/27 08:44:44;;;;;;;;;;;;;;;8.72;54.58;101817.28;4959111;29;1102;-96
2022/04/27 08:52:45;;;;;;;;;;;;;;;8.70;54.60;101811.25;4956173;29;1109;-96
2022/04/27 08:55:16;;;;;;;;;;;;;;;8.71;54.60;101820.16;4940890;29;960;-96
2022/04/27 08:57:45;;;;;;;;;;;;;;;8.71;54.57;101814.78;4955582;29;1945;-96
2022/04/27 09:00:14;;;;;;;;;;;;;;;8.70;54.41;101823.84;4950380;29;915;-96
2022/04/27 09:41:22;;;;;;;;;;;;;;;8.71;54.48;101837.09;4975497;29;771;-96
2022/04/27 09:46:25;;;;;;;;;;;;;;;8.71;54.53;101828.22;4968976;29;1387;-96
2022/04/27 09:48:52;;;;;;;;;;;;;;;8.73;54.31;101839.59;4950060;29;2250;-96
2022/04/27 09:51:18;;;;;;;;;;;;;;;8.71;54.18;101834.41;4944130;29;1781;-96
2022/04/27 09:56:37;;;;;;;;;;;;;;;8.72;54.57;101838.75;4999501;28;2236;-96
2022/04/27 09:59:16;;;;;;;;;;;;;;;8.72;54.36;101835.25;4977267;28;1998;-96
2022/04/27 10:07:59;;;;;;;;;;;;;;;8.72;54.28;101830.72;5660957;23;3640;-96
2022/04/27 10:16:01;;;;;;;;;;;;;;;8.72;54.22;101830.72;4935318;29;2228;-96
2022/04/27 10:18:27;;;;;;;;;;;;;;;8.72;54.21;101830.72;4933645;29;5143;-96
2022/04/27 10:20:54;;;;;;;;;;;;;;;8.73;54.43;101832.38;4939186;29;4997;-96
2022/04/27 10:23:21;;;;;;;;;;;;;;;8.73;54.08;101839.59;4936332;29;2138;-96
2022/04/27 10:25:48;;;;;;;;;;;;;;;8.74;54.22;101835.91;4939937;29;4216;-96
2022/04/27 10:28:15;;;;;;;;;;;;;;;8.73;54.38;101835.06;4937456;29;2766;-96
2022/04/27 10:30:42;;;;;;;;;;;;;;;8.72;54.29;101833.41;4946962;28;5134;-96
2022/04/27 10:33:08;;;;;;;;;;;;;;;8.73;54.35;101831.53;4935103;29;2275;-96
2022/04/27 10:35:36;;;;;;;;;;;;;;;8.74;54.38;101833.22;4942116;28;4917;-96
2022/04/27 10:38:05;;;;;;;;;;;;;;;8.74;54.27;101833.22;4935469;29;2070;-96
2022/04/27 10:40:31;;;;;;;;;;;;;;;8.74;54.24;101835.91;4941654;29;2820;-96
2022/04/27 10:42:57;;;;;;;;;;;;;;;8.74;54.59;101830.56;4939520;29;2094;-96
2022/04/27 10:45:24;;;;;;;;;;;;;;;8.74;54.44;101822.50;4938412;29;1406;-96
2022/04/27 10:47:50;;;;;;;;;;;;;;;8.74;54.45;101827.84;4930877;29;2596;-96
2022/04/27 10:50:17;;;;;;;;;;;;;;;8.74;54.37;101827.84;4932602;29;5467;-96
2022/04/27 10:52:43;;;;;;;;;;;;;;;8.74;54.57;101833.22;4937987;29;1923;-96
2022/04/27 10:55:10;;;;;;;;;;;;;;;8.74;54.40;101825.19;4931834;29;4758;-96
2022/04/27 10:57:39;;;;;;;;;;;;;;;8.75;54.30;101824.16;4935659;29;1947;-96
2022/04/27 11:00:06;;;;;;;;;;;;;;;8.76;54.31;101825.81;4938680;29;5578;-96
2022/04/27 11:02:32;;;;;;;;;;;;;;;8.75;54.53;101824.16;4930057;29;2032;-96
2022/04/27 11:04:59;;;;;;;;;;;;;;;8.77;54.41;101822.97;4931527;29;2155;-96
2022/04/27 11:07:26;;;;;;;;;;;;;;;8.77;54.24;101820.28;4950130;29;1772;-96
2022/04/27 11:09:52;;;;;;;;;;;;;;;8.77;54.36;101822.13;4941462;28;5249;-96
2022/04/27 11:12:19;;;;;;;;;;;;;;;8.76;54.50;101821.28;4935239;29;4838;-96
2022/04/27 11:14:45;;;;;;;;;;;;;;;8.75;54.65;101811.56;4909490;29;2073;-96
2022/04/27 11:17:13;;;;;;;;;;;;;;;8.76;54.25;101813.22;4924632;29;2074;-96
2022/04/27 11:19:41;;;;;;;;;;;;;;;8.77;54.18;101814.91;4919247;29;2800;-96
2022/04/27 11:22:07;;;;;;;;;;;;;;;8.76;54.49;101810.53;4919000;29;2737;-96
2022/04/27 11:24:34;;;;;;;;;;;;;;;8.76;54.65;101809.69;4914122;29;5255;-95
2022/04/27 11:27:00;;;;;;;;;;;;;;;8.78;54.61;101811.19;4910674;29;2856;-96
2022/04/27 11:29:27;;;;;;;;;;;;;;;8.77;54.42;101812.22;4924187;29;2162;-96
2022/04/27 11:31:53;;;;;;;;;;;;;;;8.77;54.61;101814.91;4915819;29;1929;-96
2022/04/27 11:34:20;;;;;;;;;;;;;;;8.78;54.37;101821.94;4911776;29;5125;-96
2022/04/27 11:36:46;;;;;;;;;;;;;;;8.78;54.46;101816.56;4921235;29;1738;-96
2022/04/27 11:39:13;;;;;;;;;;;;;;;8.79;54.55;101825.47;4916610;29;2219;-96
2022/04/27 11:41:39;;;;;;;;;;;;;;;8.79;54.47;101822.78;4914042;29;2248;-96
2022/04/27 11:44:05;;;;;;;;;;;;;;;8.79;54.56;101812.03;4924289;29;2164;-96
2022/04/27 11:46:32;;;;;;;;;;;;;;;8.79;54.61;101814.72;4921213;29;2830;-96
2022/04/27 11:48:58;;;;;;;;;;;;;;;8.80;54.69;101816.41;4916052;29;5121;-96
2022/04/27 11:51:25;;;;;;;;;;;;;;;8.81;54.34;101820.75;5121760;23;3635;-96
2022/04/27 11:53:51;;;;;;;;;;;;;;;8.82;54.44;101819.72;4937360;29;1794;-96
2022/04/27 11:56:18;;;;;;;;;;;;;;;8.83;54.36;101818.75;4936236;29;2564;-96
2022/04/27 11:58:45;;;;;;;;;;;;;;;8.82;54.46;101811.66;4924769;29;5567;-96
2022/04/27 12:01:12;;;;;;;;;;;;;;;8.83;54.51;101806.13;4925612;29;2051;-96
2022/04/27 12:03:38;;;;;;;;;;;;;;;8.85;54.52;101803.25;4941344;29;2057;-96
2022/04/27 12:06:04;;;;;;;;;;;;;;;8.85;54.40;101803.25;4938378;29;1881;-96
2022/04/27 12:08:33;;;;;;;;;;;;;;;8.85;54.41;101797.88;4931465;29;2988;-96
2022/04/27 12:10:59;;;;;;;;;;;;;;;8.86;54.28;101800.41;4927028;29;1626;-96
2022/04/27 12:13:26;;;;;;;;;;;;;;;8.88;54.39;101794.84;4929095;29;5234;-96
2022/04/27 12:15:54;;;;;;;;;;;;;;;8.90;54.15;101798.19;4933288;29;4966;-96
2022/04/27 12:18:20;;;;;;;;;;;;;;;8.90;54.12;101795.50;4935918;29;4862;-96
2022/04/27 12:20:48;;;;;;;;;;;;;;;8.92;54.12;101804.22;4936318;29;1341;-96
2022/04/27 12:23:14;;;;;;;;;;;;;;;8.90;54.38;101798.19;4931143;29;2666;-96
2022/04/27 12:25:41;;;;;;;;;;;;;;;8.92;54.36;101798.03;4935005;29;1898;-96
2022/04/27 13:33:46;;;;;;;;;;;;;;;9.16;54.33;101721.75;5008566;23;2701;-96
2022/04/27 13:36:16;;;;;;;;;;;;;;;9.16;54.37;101730.63;4984764;28;2460;-96
2022/04/27 13:38:44;;;;;;;;;;;;;;;9.16;54.23;101727.97;5001350;28;1916;-96
2022/04/27 13:41:10;;;;;;;;;;;;;;;9.17;54.47;101729.63;4988016;28;1640;-96
2022/04/27 13:43:39;;;;;;;;;;;;;;;9.19;54.41;101718.69;4993649;28;2119;-96
2022/04/27 13:46:11;;;;;;;;;;;;;;;9.18;54.41;101720.56;4979050;28;2018;-96
2022/04/27 13:48:40;;;;;;;;;;;;;;;9.19;54.55;101716.00;4984947;28;2493;-96
2022/04/27 13:51:08;;;;;;;;;;;;;;;9.20;54.43;101712.28;4996035;28;1670;-96
2022/04/27 13:53:35;;;;;;;;;;;;;;;9.20;54.55;101713.13;5002127;28;1452;-96
2022/04/27 13:56:05;;;;;;;;;;;;;;;9.23;54.58;101711.94;4990529;28;2047;-96
2022/04/27 13:58:44;;;;;;;;;;;;;;;9.21;54.51;101714.81;4995369;28;2477;-96
2022/04/27 14:04:12;;;;;;;;;;;;;;;9.24;54.58;101701.00;5011706;28;905;-96
2022/04/27 14:06:43;;;;;;;;;;;;;;;9.24;54.68;101697.47;4999603;28;1694;-96
2022/04/27 14:09:13;;;;;;;;;;;;;;;9.25;54.71;101691.91;4998061;28;1918;-96
2022/04/27 14:14:26;;;;;;;;;;;;;;;9.28;54.75;101688.03;4986613;28;1968;-96
2022/04/27 14:28:32;;;;;;;;;;;;;;;9.33;54.61;101686.47;4974938;28;1528;-96
2022/04/27 14:31:10;;;;;;;;;;;;;;;9.36;54.83;101689.81;4963745;28;1900;-96
2022/04/27 14:33:38;;;;;;;;;;;;;;;9.37;54.71;101691.47;4958395;28;2284;-96
2022/04/27 14:36:05;;;;;;;;;;;;;;;9.38;54.60;101674.31;4946369;29;2057;-96
2022/04/27 14:38:37;;;;;;;;;;;;;;;9.38;54.81;101668.94;4955386;29;1324;-96
2022/04/27 14:41:04;;;;;;;;;;;;;;;9.40;54.84;101672.28;4952144;29;1338;-96
2022/04/27 14:43:32;;;;;;;;;;;;;;;9.41;54.92;101673.94;4969019;29;910;-96
2022/04/27 14:46:05;;;;;;;;;;;;;;;9.42;54.69;101667.56;4949116;29;1596;-96
2022/04/27 14:48:33;;;;;;;;;;;;;;;9.44;54.79;101679.81;4958343;28;4394;-96
2022/04/27 14:51:00;;;;;;;;;;;;;;;9.45;54.82;101669.88;4960144;29;2002;-96
2022/04/27 14:53:38;;;;;;;;;;;;;;;9.46;54.91;101666.97;4962228;28;3983;-96
2022/04/27 14:56:06;;;;;;;;;;;;;;;9.48;55.06;101666.81;4963272;28;1791;-96
2022/04/27 14:58:33;;;;;;;;;;;;;;;9.50;54.96;101659.38;4956284;28;4990;-96
2022/04/27 15:00:59;;;;;;;;;;;;;;;9.50;54.83;101659.38;4949941;29;1847;-96
2022/04/27 15:03:39;;;;;;;;;;;;;;;9.51;54.95;101658.38;4959456;29;2143;-96
2022/04/27 15:06:14;;;;;;;;;;;;;;;9.53;54.98;101653.66;4957593;28;1130;-96
2022/04/27 15:09:01;;;;;;;;;;;;;;;9.54;55.16;101658.00;4945649;28;1202;-96
2022/04/27 16:06:43;;;;;;;;;;;;;;;9.89;54.88;101610.66;5011036;28;735;-96
2022/04/27 16:09:14;;;;;;;;;;;;;;;9.89;55.06;101610.66;4990253;28;1895;-96
2022/04/27 16:11:41;;;;;;;;;;;;;;;9.91;55.06;101611.31;4987348;28;1273;-96
2022/04/27 16:14:10;;;;;;;;;;;;;;;9.93;55.00;101608.41;4988466;28;1203;-96
2022/04/27 16:16:38;;;;;;;;;;;;;;;9.95;55.14;101606.38;4989281;28;1364;-96
2022/04/27 16:19:05;;;;;;;;;;;;;;;9.96;55.17;101608.84;4982232;28;1533;-96
2022/04/27 16:24:17;;;;;;;;;;;;;;;9.99;54.90;101605.78;4982855;28;4917;-96
2022/04/27 16:26:45;;;;;;;;;;;;;;;10.00;55.00;101598.56;4989765;28;1254;-96
2022/04/27 16:29:11;;;;;;;;;;;;;;;10.02;54.80;101599.19;4987525;28;1949;-96
2022/04/27 16:31:39;;;;;;;;;;;;;;;10.03;54.91;101595.50;4988853;28;1571;-96
2022/04/27 16:34:05;;;;;;;;;;;;;;;10.05;54.69;101592.59;4993812;28;1247;-96
2022/04/27 16:36:34;;;;;;;;;;;;;;;10.05;54.79;101596.09;5009977;28;1586;-96
2022/04/27 16:44:16;;;;;;;;;;;;;;;10.09;55.09;101589.34;5079719;23;3590;-95
2022/04/27 16:46:44;;;;;;;;;;;;;;;10.10;55.00;101592.84;4980974;28;2416;-96
2022/04/27 16:55:30;;;;;;;;;;;;;;;10.14;55.16;101594.13;5011901;28;1268;-96
2022/04/27 17:01:10;;;;;;;;;;;;;;;10.17;55.29;101599.13;4978675;23;4065;-96
2022/04/27 17:14:22;;;;;;;;;;;;;;;10.23;55.27;101596.53;4953361;29;1310;-96
2022/04/27 17:16:51;;;;;;;;;;;;;;;10.24;55.50;101595.50;4953348;29;2222;-96
2022/04/27 17:19:19;;;;;;;;;;;;;;;10.26;55.59;101597.16;4932902;29;1870;-96
2022/04/27 17:21:50;;;;;;;;;;;;;;;10.26;55.70;101594.47;4939042;29;1433;-96
2022/04/27 17:24:17;;;;;;;;;;;;;;;10.28;55.60;101595.13;4940483;29;1643;-96
2022/04/27 17:29:31;;;;;;;;;;;;;;;10.30;55.66;101595.78;4936793;29;1887;-96
2022/04/27 17:31:58;;;;;;;;;;;;;;;10.30;55.85;101603.88;4935143;29;1371;-96
2022/04/27 17:34:28;;;;;;;;;;;;;;;10.31;55.80;101602.81;4936602;29;1386;-96
2022/04/27 17:36:58;;;;;;;;;;;;;;;10.32;55.84;101593.72;4952251;29;1541;-96
2022/04/27 17:39:27;;;;;;;;;;;;;;;10.32;55.74;101594.53;4933847;29;1482;-96
2022/04/27 17:42:33;;;;;;;;;;;;;;;10.32;55.88;101604.50;4935522;29;1583;-96
2022/04/27 17:44:41;;;;;;;;;;;;;;;10.34;55.89;101599.75;4930851;29;2313;-96
2022/04/27 17:47:10;;;;;;;;;;;;;;;10.34;56.03;101599.75;4920242;29;2817;-95
2022/04/27 17:49:36;;;;;;;;;;;;;;;10.34;55.84;101600.59;4919104;29;2084;-89
2022/04/27 17:52:02;;;;;;;;;;;;;;;10.35;55.91;101602.28;4927907;29;5496;-90
2022/04/27 17:54:29;;;;;;;;;;;;;;;10.36;55.98;101595.84;4914929;29;5562;-91
2022/04/27 17:56:55;;;;;;;;;;;;;;;10.36;55.88;101603.09;4916526;29;2110;-91
2022/04/27 17:59:21;;;;;;;;;;;;;;;10.36;55.93;101597.72;4915320;29;5013;-91
2022/04/27 18:01:48;;;;;;;;;;;;;;;10.36;56.14;101595.84;4912995;29;1968;-93
2022/04/27 18:04:15;;;;;;;;;;;;;;;10.37;55.94;101602.06;4911789;29;2746;-91
2022/04/27 18:06:41;;;;;;;;;;;;;;;10.37;56.05;101604.75;4914021;29;1992;-91
2022/04/27 18:09:10;;;;;;;;;;;;;;;10.37;56.20;101596.69;4910465;29;5459;-91
2022/04/27 18:11:40;;;;;;;;;;;;;;;10.37;56.07;101596.69;4935213;29;2032;-96
2022/04/27 18:14:07;;;;;;;;;;;;;;;10.37;56.19;101599.38;4940703;28;4901;-94
2022/04/27 18:16:33;;;;;;;;;;;;;;;10.37;56.14;101599.38;4938753;29;2043;-96
2022/04/27 18:19:00;;;;;;;;;;;;;;;10.36;56.22;101595.00;4932741;28;2777;-94
2022/04/27 18:21:26;;;;;;;;;;;;;;;10.37;55.94;101591.28;4935103;29;5515;-94
2022/04/27 18:23:52;;;;;;;;;;;;;;;10.36;56.11;101587.75;4933941;29;4889;-94
2022/04/27 18:26:19;;;;;;;;;;;;;;;10.35;56.23;101596.88;4941314;29;1657;-92
2022/04/27 18:28:46;;;;;;;;;;;;;;;10.37;56.33;101591.28;4936517;29;2079;-92
2022/04/27 18:31:14;;;;;;;;;;;;;;;10.35;56.23;101594.19;4935581;29;3104;-91
2022/04/27 18:33:40;;;;;;;;;;;;;;;10.35;56.26;101588.81;4933126;29;5322;-92
2022/04/27 18:36:07;;;;;;;;;;;;;;;10.36;56.28;101595.00;4938724;29;4256;-92
2022/04/27 18:38:33;;;;;;;;;;;;;;;10.35;56.36;101599.56;4931497;29;4124;-91
2022/04/27 18:41:00;;;;;;;;;;;;;;;10.35;56.25;101599.56;4930761;29;1968;-91
2022/04/27 18:51:40;;;;;;;;;;;;;;;10.32;56.30;101607.19;4951247;29;2001;-91
2022/04/27 18:54:07;;;;;;;;;;;;;;;10.30;56.46;101612.78;4929280;29;4947;-91
2022/04/27 18:56:33;;;;;;;;;;;;;;;10.31;56.22;101616.28;4931127;29;2290;-92
2022/04/27 18:59:00;;;;;;;;;;;;;;;10.28;55.65;101606.75;4931106;29;2708;-92
2022/04/27 19:01:26;;;;;;;;;;;;;;;10.27;55.96;101613.16;4925089;29;5691;-93
2022/04/27 19:03:52;;;;;;;;;;;;;;;10.27;55.53;101615.03;4918277;29;3475;-92
2022/04/27 19:06:19;;;;;;;;;;;;;;;10.26;55.92;101614.13;4930146;29;2400;-93
2022/04/27 19:08:45;;;;;;;;;;;;;;;10.24;55.23;101617.03;4931535;29;2061;-93
2022/04/27 19:11:12;;;;;;;;;;;;;;;10.23;55.65;101620.75;4930972;28;5255;-92
2022/04/27 19:13:44;;;;;;;;;;;;;;;10.22;55.45;101616.38;4928813;29;3572;-93
2022/04/27 19:16:12;;;;;;;;;;;;;;;10.22;55.39;101618.25;4926902;29;3579;-93
2022/04/27 19:18:38;;;;;;;;;;;;;;;10.20;55.00;101621.13;4936143;29;2401;-92
2022/04/27 19:21:05;;;;;;;;;;;;;;;10.19;55.22;101618.63;4933487;29;2513;-92
2022/04/27 19:23:31;;;;;;;;;;;;;;;10.16;55.12;101614.47;4925935;29;5621;-93
2022/04/27 19:26:01;;;;;;;;;;;;;;;10.14;55.22;101619.19;4929948;29;2431;-93
2022/04/27 19:28:28;;;;;;;;;;;;;;;10.16;55.17;101621.69;4931881;29;2515;-93
2022/04/27 19:30:54;;;;;;;;;;;;;;;10.16;55.24;101611.75;4934822;29;2488;-93
2022/04/27 19:33:21;;;;;;;;;;;;;;;10.15;55.20;101607.41;4930670;29;2690;-93
2022/04/27 19:35:47;;;;;;;;;;;;;;;10.12;54.85;101610.50;4946386;29;2343;-93
2022/04/27 19:38:14;;;;;;;;;;;;;;;10.11;55.12;101610.66;4940752;28;5439;-94
2022/04/27 19:40:40;;;;;;;;;;;;;;;10.10;54.69;101609.84;4935553;29;1788;-93
2022/04/27 19:43:06;;;;;;;;;;;;;;;10.08;55.25;101614.56;4928645;29;2223;-93
2022/04/27 19:45:33;;;;;;;;;;;;;;;10.10;54.84;101609.00;4923614;29;5561;-93
2022/04/27 19:47:59;;;;;;;;;;;;;;;10.09;54.88;101613.56;4945383;28;2510;-93
2022/04/27 19:50:26;;;;;;;;;;;;;;;10.08;54.79;101613.75;4928819;29;2173;-93
2022/04/27 19:53:09;;;;;;;;;;;;;;;10.08;54.79;101613.75;4932758;29;5615;-93
2022/04/27 19:55:41;;;;;;;;;;;;;;;10.05;54.55;101614.13;4948519;29;5373;-93
2022/04/27 19:58:09;;;;;;;;;;;;;;;10.04;54.88;101610.59;4951145;29;2431;-93
2022/04/27 20:00:36;;;;;;;;;;;;;;;10.03;54.66;101606.25;4954120;29;2608;-93
2022/04/27 20:03:03;;;;;;;;;;;;;;;10.06;55.28;101615.78;4948069;29;5772;-93
2022/04/27 20:05:30;;;;;;;;;;;;;;;10.04;54.82;101617.84;4944228;29;2479;-92
2022/04/27 20:07:58;;;;;;;;;;;;;;;10.01;54.79;101611.81;4944429;29;2271;-92
2022/04/27 20:10:24;;;;;;;;;;;;;;;10.00;54.88;101612.03;4937386;29;2172;-92
2022/04/27 20:12:51;;;;;;;;;;;;;;;9.95;54.76;101604.50;4938061;29;2712;-93
2022/04/27 20:15:18;;;;;;;;;;;;;;;9.91;54.58;101613.13;4938109;28;5552;-92
2022/04/27 20:17:45;;;;;;;;;;;;;;;9.89;54.74;101605.25;4942269;29;2531;-92
2022/04/27 20:20:12;;;;;;;;;;;;;;;9.90;54.60;101604.22;4942652;29;1543;-93
2022/04/27 20:22:39;;;;;;;;;;;;;;;9.90;54.75;101611.47;4927853;29;5326;-93
2022/04/27 20:25:05;;;;;;;;;;;;;;;9.87;54.69;101609.16;4951426;29;5405;-93
2022/04/27 20:27:32;;;;;;;;;;;;;;;9.85;54.78;101606.66;4939114;29;2186;-94
2022/04/27 20:30:02;;;;;;;;;;;;;;;9.82;54.46;101601.66;4942898;29;1179;-93
2022/04/27 20:32:28;;;;;;;;;;;;;;;9.80;54.50;101608.25;4927974;29;5637;-93
2022/04/27 20:34:55;;;;;;;;;;;;;;;9.77;54.52;101604.91;4924657;29;5049;-93
2022/04/27 20:37:21;;;;;;;;;;;;;;;9.76;54.35;101613.16;4935227;29;2313;-93
2022/04/27 20:39:47;;;;;;;;;;;;;;;9.74;54.51;101609.84;4934935;29;1665;-92
2022/04/27 20:42:14;;;;;;;;;;;;;;;9.71;54.41;101610.22;4933472;28;5504;-93
2022/04/27 20:44:40;;;;;;;;;;;;;;;9.72;54.33;101612.72;4935334;29;5175;-92
2022/04/27 20:47:06;;;;;;;;;;;;;;;9.71;54.36;101612.91;4937011;29;2485;-92
2022/04/27 20:49:33;;;;;;;;;;;;;;;9.69;54.46;101602.34;4953928;29;5119;-93
2022/04/27 20:52:05;;;;;;;;;;;;;;;9.69;54.40;101613.09;4938003;29;2997;-93
2022/04/27 20:54:31;;;;;;;;;;;;;;;9.66;54.26;101612.63;4939164;29;5604;-93
2022/04/27 20:56:58;;;;;;;;;;;;;;;9.64;54.33;101620.06;4958579;29;2140;-93
2022/04/27 20:59:24;;;;;;;;;;;;;;;9.62;54.41;101616.72;4946547;28;4995;-93
2022/04/27 21:01:50;;;;;;;;;;;;;;;9.62;54.60;101614.00;4943313;29;1454;-93
2022/04/27 21:04:17;;;;;;;;;;;;;;;9.62;54.19;101616.72;4948346;28;5498;-93
2022/04/27 21:06:43;;;;;;;;;;;;;;;9.61;54.37;101618.56;4943215;29;1222;-93
2022/04/27 21:09:09;;;;;;;;;;;;;;;9.58;54.16;101613.56;4940334;29;4718;-93
2022/04/27 21:11:36;;;;;;;;;;;;;;;9.57;54.07;101619.97;4939765;29;1907;-91
2022/04/27 21:14:02;;;;;;;;;;;;;;;9.53;54.12;101622.22;4927050;29;2786;-92
2022/04/27 21:16:29;;;;;;;;;;;;;;;9.53;54.59;101624.06;4941001;29;1528;-93
2022/04/27 21:18:55;;;;;;;;;;;;;;;9.50;54.35;101616.34;4933990;29;5705;-93
2022/04/27 21:21:21;;;;;;;;;;;;;;;9.50;54.15;101617.22;4937202;29;5356;-93
2022/04/27 21:23:48;;;;;;;;;;;;;;;9.49;54.12;101620.91;4939170;29;4300;-93
2022/04/27 21:26:14;;;;;;;;;;;;;;;9.48;54.27;101626.47;4934872;29;2475;-93
2022/04/27 21:28:41;;;;;;;;;;;;;;;9.46;54.25;101620.44;4938779;29;2764;-93
2022/04/27 21:31:07;;;;;;;;;;;;;;;9.44;54.10;101614.41;4954341;29;1949;-92
2022/04/27 21:33:33;;;;;;;;;;;;;;;9.43;54.15;101621.66;4943468;28;5609;-93
2022/04/27 21:36:00;;;;;;;;;;;;;;;9.40;54.26;101619.31;4932503;29;4851;-93
2022/04/27 21:38:27;;;;;;;;;;;;;;;9.39;54.17;101619.53;4937890;29;2138;-93
2022/04/27 21:40:53;;;;;;;;;;;;;;;9.37;54.14;101622.38;4954539;28;1914;-93
2022/04/27 21:43:19;;;;;;;;;;;;;;;9.36;54.30;101617.22;4935374;29;2698;-93
2022/04/27 21:45:46;;;;;;;;;;;;;;;9.34;53.93;101630.81;4932242;29;5381;-92
2022/04/27 21:48:12;;;;;;;;;;;;;;;9.33;53.89;101627.31;4935300;29;4981;-93
2022/04/27 21:50:38;;;;;;;;;;;;;;;9.30;54.07;101626.84;4942044;29;1994;-93
2022/04/27 21:53:05;;;;;;;;;;;;;;;9.28;54.05;101618.13;4950170;28;2139;-93
2022/04/27 21:55:31;;;;;;;;;;;;;;;9.25;54.15;101613.94;4930891;29;2937;-93
2022/04/27 21:58:00;;;;;;;;;;;;;;;9.25;53.98;101615.81;4944334;28;5632;-92
2022/04/27 22:01:05;;;;;;;;;;;;;;;9.23;54.18;101613.28;4941014;29;1518;-93
2022/04/27 22:03:12;;;;;;;;;;;;;;;9.22;54.04;101608.13;4938206;29;2281;-93
2022/04/27 22:05:39;;;;;;;;;;;;;;;9.20;53.97;101604.78;4932754;29;1569;-93
2022/04/27 22:08:05;;;;;;;;;;;;;;;9.17;54.10;101605.97;4932154;29;2769;-92
2022/04/27 22:10:31;;;;;;;;;;;;;;;9.16;54.02;101611.56;4930127;29;1977;-93
2022/04/27 22:12:58;;;;;;;;;;;;;;;9.14;54.15;101608.19;4933173;29;5410;-93
2022/04/27 22:15:24;;;;;;;;;;;;;;;9.12;54.17;101613.78;4926171;29;1904;-94
2022/04/27 22:17:50;;;;;;;;;;;;;;;9.13;53.84;101617.28;4937174;29;2211;-92
2022/04/27 22:20:17;;;;;;;;;;;;;;;9.10;53.89;101611.25;4927640;29;1999;-92
2022/04/27 22:22:43;;;;;;;;;;;;;;;9.08;54.27;101605.22;4933052;29;2737;-93
2022/04/27 22:25:09;;;;;;;;;;;;;;;9.07;53.67;101608.09;4947204;29;1628;-93
2022/04/27 22:27:36;;;;;;;;;;;;;;;9.05;54.24;101608.28;4944737;29;5403;-93
2022/04/27 22:30:02;;;;;;;;;;;;;;;9.05;54.14;101607.44;4935320;29;4862;-93
2022/04/27 22:32:28;;;;;;;;;;;;;;;9.03;53.81;101618.41;4936667;29;2260;-92
2022/04/27 22:34:54;;;;;;;;;;;;;;;9.02;53.89;101616.72;4933333;29;1972;-93
2022/04/27 22:37:21;;;;;;;;;;;;;;;9.01;53.59;101623.13;4933421;29;2749;-92
2022/04/27 22:39:48;;;;;;;;;;;;;;;8.98;54.05;101615.41;4934819;29;1920;-93
2022/04/27 22:42:14;;;;;;;;;;;;;;;8.97;53.82;101610.22;4933757;28;5439;-93
2022/04/27 22:44:40;;;;;;;;;;;;;;;8.95;53.92;101617.66;4936833;29;2620;-93
2022/04/27 22:47:07;;;;;;;;;;;;;;;8.93;53.97;101615.13;4931486;28;2144;-93
2022/04/27 22:49:33;;;;;;;;;;;;;;;8.93;53.88;101619.66;4931451;28;2022;-93
2022/04/27 22:52:00;;;;;;;;;;;;;;;8.91;53.91;101609.09;4934463;29;2674;-93
2022/04/27 22:54:29;;;;;;;;;;;;;;;8.90;53.82;101609.28;4933562;29;4963;-93
2022/04/27 22:56:55;;;;;;;;;;;;;;;8.88;53.51;101604.09;4948252;29;2062;-93
2022/04/27 22:59:22;;;;;;;;;;;;;;;8.86;53.83;101604.28;4935971;29;4662;-93
2022/04/27 23:01:48;;;;;;;;;;;;;;;8.85;53.92;101609.81;4933164;29;2759;-93
2022/04/27 23:04:14;;;;;;;;;;;;;;;8.82;53.64;101603.00;4928347;29;5498;-93
2022/04/27 23:06:41;;;;;;;;;;;;;;;8.83;53.38;101603.81;4934746;29;2426;-93
2022/04/27 23:11:51;;;;;;;;;;;;;;;8.81;53.53;101595.94;4931759;29;2115;-93
2022/04/27 23:14:19;;;;;;;;;;;;;;;8.81;53.66;101592.41;4948136;28;2893;-93
2022/04/27 23:16:45;;;;;;;;;;;;;;;8.81;53.53;101592.41;4934028;29;2035;-93
2022/04/27 23:19:12;;;;;;;;;;;;;;;8.80;53.68;101590.75;4942061;28;5466;-93
2022/04/27 23:21:38;;;;;;;;;;;;;;;8.78;53.58;101590.09;4932686;29;2405;-93
2022/04/27 23:24:05;;;;;;;;;;;;;;;8.75;53.79;101590.47;4951131;28;4591;-93
2022/04/27 23:26:31;;;;;;;;;;;;;;;8.73;53.45;101585.25;4949306;28;1989;-93
2022/04/27 23:28:57;;;;;;;;;;;;;;;8.71;53.75;101586.47;4930777;28;2784;-93
2022/04/27 23:31:24;;;;;;;;;;;;;;;8.69;53.52;101591.19;4932726;29;1986;-93
2022/04/27 23:33:50;;;;;;;;;;;;;;;8.66;53.43;101592.38;4927376;29;5326;-93
2022/04/27 23:36:16;;;;;;;;;;;;;;;8.64;53.49;101584.50;4946235;29;2105;-92
2022/04/27 23:38:42;;;;;;;;;;;;;;;8.64;53.70;101584.50;4935556;29;4643;-93
2022/04/27 23:41:09;;;;;;;;;;;;;;;8.62;53.66;101583.03;4931930;29;1941;-93
2022/04/27 23:43:35;;;;;;;;;;;;;;;8.60;53.65;101587.75;4930587;29;2709;-93
2022/04/27 23:46:01;;;;;;;;;;;;;;;8.56;53.30;101579.22;4932688;29;2071;-92
2022/04/27 23:48:28;;;;;;;;;;;;;;;8.56;53.46;101581.91;4929990;29;5451;-93
2022/04/27 23:50:54;;;;;;;;;;;;;;;8.57;53.31;101578.19;4936596;29;4937;-93
2022/04/27 23:53:20;;;;;;;;;;;;;;;8.55;53.47;101576.72;4930245;29;4839;-93
2022/04/27 23:55:47;;;;;;;;;;;;;;;8.54;53.40;101570.50;4936689;29;2118;-93
2022/04/27 23:58:13;;;;;;;;;;;;;;;8.54;53.51;101570.50;4930979;29;2943;-93
